Time;durP1;ratioP1;P1;durP2;ratioP2;P2;SDS_P1;SDS_P2;PMS_P1;PMS_P2;Temp;Humidity;BMP_temperature;BMP_pressure;BME280_temperature;BME280_humidity;BME280_pressure;Samples;Min_cycle;Max_cycle;Signal;HPM_P1;HPM_P2
2021/07/30 00:01:55;;;;;;;;;;;14.80;99.90;;;;;;5128214;27;19916;-79
2021/07/30 00:04:21;;;;;;;;;;;14.80;99.90;;;;;;5092969;28;20007;-78
2021/07/30 00:06:46;;;;;;;;;;;14.80;99.90;;;;;;5098238;28;23198;-78
2021/07/30 00:09:12;;;;;;;;;;;14.70;99.90;;;;;;5097398;28;19912;-78
2021/07/30 00:11:38;;;;;;;;;;;14.70;99.90;;;;;;5101132;28;19918;-83
2021/07/30 00:14:03;;;;;;;;;;;14.70;99.90;;;;;;5097241;28;19920;-78
2021/07/30 00:16:29;;;;;;;;;;;14.70;99.90;;;;;;5088631;28;19912;-78
2021/07/30 00:18:55;;;;;;;;;;;14.60;99.90;;;;;;5084665;28;20294;-77
2021/07/30 00:21:20;;;;;;;;;;;14.60;99.90;;;;;;5099249;28;19907;-76
2021/07/30 00:23:46;;;;;;;;;;;14.60;99.90;;;;;;5099581;28;19963;-78
2021/07/30 00:26:11;;;;;;;;;;;14.50;99.90;;;;;;5095643;28;20303;-78
2021/07/30 00:28:37;;;;;;;;;;;14.50;99.90;;;;;;5089849;28;20021;-81
2021/07/30 00:31:02;;;;;;;;;;;14.40;99.90;;;;;;5095581;28;20456;-78
2021/07/30 00:33:28;;;;;;;;;;;14.40;99.90;;;;;;5086645;28;19920;-77
2021/07/30 00:35:55;;;;;;;;;;;14.40;99.90;;;;;;5088605;28;19920;-80
2021/07/30 00:38:20;;;;;;;;;;;14.40;99.90;;;;;;5084469;28;20054;-78
2021/07/30 00:40:46;;;;;;;;;;;14.40;99.90;;;;;;5096356;28;20301;-78
2021/07/30 00:43:12;;;;;;;;;;;14.30;99.90;;;;;;5096339;28;19924;-76
2021/07/30 00:45:38;;;;;;;;;;;14.40;99.90;;;;;;5102254;28;20012;-79
2021/07/30 00:48:03;;;;;;;;;;;14.40;99.90;;;;;;5074677;28;20063;-79
2021/07/30 00:50:29;;;;;;;;;;;14.40;99.90;;;;;;5086911;28;19998;-78
2021/07/30 00:52:55;;;;;;;;;;;14.40;99.90;;;;;;5093461;28;20061;-78
2021/07/30 00:55:21;;;;;;;;;;;14.30;99.90;;;;;;5105395;28;19908;-77
2021/07/30 00:57:48;;;;;;;;;;;14.30;99.90;;;;;;5099905;28;19912;-78
2021/07/30 01:00:13;;;;;;;;;;;14.30;99.90;;;;;;5107270;28;19958;-77
2021/07/30 01:02:39;;;;;;;;;;;14.40;99.90;;;;;;5091976;28;19912;-78
2021/07/30 01:05:05;;;;;;;;;;;14.30;99.90;;;;;;5095444;28;19916;-77
2021/07/30 01:07:30;;;;;;;;;;;14.30;99.90;;;;;;5094179;28;20233;-77
2021/07/30 01:09:56;;;;;;;;;;;14.20;99.90;;;;;;5089719;28;19912;-77
2021/07/30 01:12:21;;;;;;;;;;;14.20;99.90;;;;;;5093189;28;19950;-79
2021/07/30 01:14:47;;;;;;;;;;;14.30;99.90;;;;;;5087485;28;20318;-78
2021/07/30 01:17:12;;;;;;;;;;;14.20;99.90;;;;;;5090361;28;20018;-78
2021/07/30 01:19:38;;;;;;;;;;;14.20;99.90;;;;;;5087377;28;19916;-78
2021/07/30 01:22:09;;;;;;;;;;;14.20;99.90;;;;;;5079624;28;19955;-81
2021/07/30 01:24:35;;;;;;;;;;;14.20;99.90;;;;;;5093560;28;20031;-77
2021/07/30 01:27:01;;;;;;;;;;;14.20;99.90;;;;;;5093225;28;20313;-79
2021/07/30 01:29:29;;;;;;;;;;;14.20;99.90;;;;;;5086188;28;20007;-78
2021/07/30 01:31:55;;;;;;;;;;;14.20;99.90;;;;;;5094683;28;20369;-78
2021/07/30 01:34:21;;;;;;;;;;;14.20;99.90;;;;;;5095517;28;20054;-82
2021/07/30 01:36:46;;;;;;;;;;;14.20;99.90;;;;;;5089709;28;20053;-80
2021/07/30 01:39:12;;;;;;;;;;;14.20;99.90;;;;;;5085720;28;19969;-77
2021/07/30 01:41:39;;;;;;;;;;;14.20;99.90;;;;;;5087503;28;20020;-77
2021/07/30 01:44:04;;;;;;;;;;;14.20;99.90;;;;;;5093212;28;19919;-77
2021/07/30 01:46:30;;;;;;;;;;;14.20;99.90;;;;;;5094908;28;19912;-78
2021/07/30 01:48:55;;;;;;;;;;;14.20;99.90;;;;;;5098500;28;19924;-77
2021/07/30 01:51:21;;;;;;;;;;;14.20;99.90;;;;;;5082878;28;19916;-79
2021/07/30 01:53:46;;;;;;;;;;;14.20;99.90;;;;;;5106880;28;19911;-77
2021/07/30 01:56:14;;;;;;;;;;;14.10;99.90;;;;;;5094753;28;20205;-79
2021/07/30 01:58:39;;;;;;;;;;;14.10;99.90;;;;;;5086516;28;19919;-77
2021/07/30 02:01:05;;;;;;;;;;;14.10;99.90;;;;;;5092073;28;20315;-79
2021/07/30 02:03:31;;;;;;;;;;;14.10;99.90;;;;;;5086517;28;19970;-77
2021/07/30 02:05:56;;;;;;;;;;;14.10;99.90;;;;;;5077223;28;19919;-78
2021/07/30 02:08:22;;;;;;;;;;;14.00;99.90;;;;;;5123892;27;20337;-77
2021/07/30 02:10:47;;;;;;;;;;;14.00;99.90;;;;;;5088020;28;19916;-79
2021/07/30 02:15:57;;;;;;;;;;;14.00;99.90;;;;;;5095540;28;19930;-77
2021/07/30 02:18:23;;;;;;;;;;;14.00;99.90;;;;;;5092514;28;19920;-77
2021/07/30 02:20:48;;;;;;;;;;;14.00;99.90;;;;;;5090016;28;19916;-78
2021/07/30 02:23:14;;;;;;;;;;;14.00;99.90;;;;;;5085293;28;19912;-80
2021/07/30 02:25:39;;;;;;;;;;;13.90;99.90;;;;;;5090939;28;19923;-79
2021/07/30 02:28:05;;;;;;;;;;;13.90;99.90;;;;;;5093274;28;19962;-79
2021/07/30 02:30:31;;;;;;;;;;;13.90;99.90;;;;;;5092287;28;19917;-78
2021/07/30 02:32:56;;;;;;;;;;;14.00;99.90;;;;;;5087088;28;20038;-77
2021/07/30 02:35:22;;;;;;;;;;;14.00;99.90;;;;;;5094724;28;20082;-78
2021/07/30 02:37:47;;;;;;;;;;;14.00;99.90;;;;;;5093223;28;19916;-78
2021/07/30 02:40:13;;;;;;;;;;;14.00;99.90;;;;;;5107320;28;19912;-77
2021/07/30 02:42:39;;;;;;;;;;;14.00;99.90;;;;;;5100242;28;20050;-77
2021/07/30 02:45:05;;;;;;;;;;;13.90;99.90;;;;;;5094517;28;20295;-78
2021/07/30 02:47:30;;;;;;;;;;;14.00;99.90;;;;;;5092406;28;19958;-78
2021/07/30 02:49:56;;;;;;;;;;;14.00;99.90;;;;;;5101426;28;20321;-78
2021/07/30 02:52:21;;;;;;;;;;;13.90;99.90;;;;;;5087511;28;19939;-77
2021/07/30 02:54:47;;;;;;;;;;;13.90;99.90;;;;;;5099994;28;19994;-77
2021/07/30 02:57:13;;;;;;;;;;;14.00;99.90;;;;;;5098916;28;20217;-77
2021/07/30 02:59:38;;;;;;;;;;;14.00;99.90;;;;;;5096969;28;20012;-76
2021/07/30 03:02:04;;;;;;;;;;;14.00;99.90;;;;;;5093683;28;19908;-79
2021/07/30 03:04:29;;;;;;;;;;;14.00;99.90;;;;;;5092738;28;19912;-79
2021/07/30 03:06:55;;;;;;;;;;;14.00;99.90;;;;;;5092280;28;19912;-77
2021/07/30 03:09:21;;;;;;;;;;;14.00;99.90;;;;;;5088388;28;19970;-78
2021/07/30 03:11:46;;;;;;;;;;;14.00;99.90;;;;;;5101368;28;19956;-80
2021/07/30 03:14:12;;;;;;;;;;;14.00;99.90;;;;;;5097157;28;19916;-77
2021/07/30 03:16:38;;;;;;;;;;;14.00;99.90;;;;;;5093601;28;19919;-78
2021/07/30 03:19:04;;;;;;;;;;;14.00;99.90;;;;;;5121183;27;19983;-77
2021/07/30 03:21:29;;;;;;;;;;;13.90;99.90;;;;;;5087651;28;19912;-77
2021/07/30 03:23:55;;;;;;;;;;;13.90;99.90;;;;;;5091941;28;20207;-77
2021/07/30 03:26:21;;;;;;;;;;;13.90;99.90;;;;;;5088966;28;19919;-77
2021/07/30 03:28:49;;;;;;;;;;;13.80;99.90;;;;;;5093649;28;19916;-76
2021/07/30 03:31:15;;;;;;;;;;;13.80;99.90;;;;;;5095771;28;19919;-77
2021/07/30 03:33:41;;;;;;;;;;;13.80;99.90;;;;;;5086918;28;19916;-78
2021/07/30 03:36:06;;;;;;;;;;;13.80;99.90;;;;;;5090610;28;19920;-78
2021/07/30 03:38:32;;;;;;;;;;;13.80;99.90;;;;;;5084468;28;20010;-80
2021/07/30 03:41:01;;;;;;;;;;;13.90;99.90;;;;;;5095691;28;19916;-77
2021/07/30 03:43:26;;;;;;;;;;;13.90;99.90;;;;;;5096380;28;19916;-78
2021/07/30 03:45:52;;;;;;;;;;;13.90;99.90;;;;;;5096337;28;19920;-78
2021/07/30 03:48:18;;;;;;;;;;;13.90;99.90;;;;;;5085792;28;19924;-76
2021/07/30 03:50:43;;;;;;;;;;;13.90;99.90;;;;;;5096556;28;19912;-77
2021/07/30 03:53:09;;;;;;;;;;;13.90;99.90;;;;;;5095667;28;20002;-79
2021/07/30 03:55:34;;;;;;;;;;;14.00;99.90;;;;;;5093309;28;19955;-77
2021/07/30 03:58:00;;;;;;;;;;;14.00;99.90;;;;;;5095852;28;19912;-78
2021/07/30 04:00:26;;;;;;;;;;;14.00;99.90;;;;;;5095834;28;19920;-77
2021/07/30 04:02:51;;;;;;;;;;;14.00;99.90;;;;;;5094520;28;19920;-77
2021/07/30 04:05:17;;;;;;;;;;;14.00;99.90;;;;;;5094041;28;19939;-77
2021/07/30 04:07:42;;;;;;;;;;;14.00;99.90;;;;;;5094237;28;19916;-79
2021/07/30 04:10:09;;;;;;;;;;;14.10;99.90;;;;;;5095848;28;20326;-78
2021/07/30 04:12:35;;;;;;;;;;;14.10;99.90;;;;;;5091473;28;20299;-80
2021/07/30 04:15:01;;;;;;;;;;;14.10;99.90;;;;;;5087156;28;19999;-77
2021/07/30 04:17:26;;;;;;;;;;;14.10;99.90;;;;;;5093623;28;19940;-78
2021/07/30 04:19:52;;;;;;;;;;;14.10;99.90;;;;;;5096809;28;19923;-77
2021/07/30 04:22:17;;;;;;;;;;;14.20;99.90;;;;;;5091780;28;19965;-79
2021/07/30 04:24:43;;;;;;;;;;;14.20;99.90;;;;;;5096710;28;20281;-77
2021/07/30 04:27:09;;;;;;;;;;;14.10;99.90;;;;;;5094566;28;19912;-78
2021/07/30 04:29:41;;;;;;;;;;;14.20;99.90;;;;;;5088402;28;19919;-77
2021/07/30 04:32:11;;;;;;;;;;;14.20;99.90;;;;;;5096263;28;20210;-77
2021/07/30 04:34:37;;;;;;;;;;;14.20;99.90;;;;;;5094994;28;20002;-79
2021/07/30 04:37:02;;;;;;;;;;;14.20;99.90;;;;;;5096474;28;20211;-78
2021/07/30 04:39:28;;;;;;;;;;;14.20;99.90;;;;;;5096309;28;19916;-78
2021/07/30 04:41:53;;;;;;;;;;;14.30;99.90;;;;;;5095668;28;19954;-78
2021/07/30 04:44:20;;;;;;;;;;;14.20;99.90;;;;;;5093851;28;19920;-78
2021/07/30 04:46:46;;;;;;;;;;;14.30;99.90;;;;;;5100977;28;19939;-79
2021/07/30 04:49:12;;;;;;;;;;;14.30;99.90;;;;;;5090001;28;20315;-78
2021/07/30 04:51:37;;;;;;;;;;;14.30;99.90;;;;;;5093796;28;19947;-79
2021/07/30 04:54:03;;;;;;;;;;;14.30;99.90;;;;;;5093206;28;19920;-77
2021/07/30 04:56:29;;;;;;;;;;;14.40;99.90;;;;;;5095929;28;19916;-77
2021/07/30 04:58:54;;;;;;;;;;;14.40;99.90;;;;;;5095120;28;19916;-78
2021/07/30 05:01:20;;;;;;;;;;;14.50;99.90;;;;;;5100336;28;20908;-78
2021/07/30 05:03:45;;;;;;;;;;;14.50;99.90;;;;;;5094161;28;19964;-79
2021/07/30 05:06:15;;;;;;;;;;;14.50;99.90;;;;;;5092537;28;19970;-78
2021/07/30 05:08:41;;;;;;;;;;;14.60;99.90;;;;;;5096115;28;19911;-78
2021/07/30 05:11:08;;;;;;;;;;;14.60;99.90;;;;;;5097733;28;19919;-77
2021/07/30 05:13:33;;;;;;;;;;;14.70;99.90;;;;;;5095003;28;20300;-77
2021/07/30 05:16:03;;;;;;;;;;;14.70;99.90;;;;;;5095614;28;19921;-79
2021/07/30 05:18:29;;;;;;;;;;;14.70;99.90;;;;;;5104443;28;19993;-78
2021/07/30 05:20:54;;;;;;;;;;;14.70;99.90;;;;;;5111898;28;19912;-79
2021/07/30 05:23:20;;;;;;;;;;;14.80;99.90;;;;;;5142487;27;19918;-79
2021/07/30 05:25:52;;;;;;;;;;;14.80;99.90;;;;;;5110957;28;19922;-77
2021/07/30 05:28:18;;;;;;;;;;;14.80;99.90;;;;;;5106598;28;19923;-78
2021/07/30 05:30:43;;;;;;;;;;;14.90;99.90;;;;;;5114590;28;19908;-77
2021/07/30 05:33:09;;;;;;;;;;;14.90;99.90;;;;;;5102682;28;20267;-77
2021/07/30 05:35:35;;;;;;;;;;;15.00;99.90;;;;;;5096524;28;20317;-78
2021/07/30 05:38:00;;;;;;;;;;;15.00;99.90;;;;;;5091087;28;20260;-76
2021/07/30 05:40:26;;;;;;;;;;;15.00;99.90;;;;;;5128160;27;19923;-77
2021/07/30 05:42:51;;;;;;;;;;;15.10;99.90;;;;;;5107121;28;19957;-77
2021/07/30 05:45:17;;;;;;;;;;;15.10;99.90;;;;;;5114143;28;19915;-78
2021/07/30 05:47:43;;;;;;;;;;;15.10;99.90;;;;;;5110749;28;19919;-77
2021/07/30 05:50:08;;;;;;;;;;;15.10;99.90;;;;;;5101036;28;19920;-76
2021/07/30 05:52:34;;;;;;;;;;;15.20;99.90;;;;;;5098473;28;19923;-77
2021/07/30 05:55:00;;;;;;;;;;;15.20;99.90;;;;;;5142730;27;19961;-79
2021/07/30 05:57:26;;;;;;;;;;;15.30;99.90;;;;;;5111865;28;19916;-77
2021/07/30 05:59:51;;;;;;;;;;;15.40;99.90;;;;;;5103528;28;19912;-78
2021/07/30 06:02:17;;;;;;;;;;;15.50;99.90;;;;;;5109462;28;20210;-77
2021/07/30 06:04:42;;;;;;;;;;;15.50;99.90;;;;;;5095958;28;20289;-78
2021/07/30 06:07:08;;;;;;;;;;;15.60;99.90;;;;;;5088298;28;19938;-77
2021/07/30 06:09:34;;;;;;;;;;;15.70;99.90;;;;;;5085396;28;19912;-77
2021/07/30 06:12:00;;;;;;;;;;;15.80;99.90;;;;;;5082958;28;19920;-78
2021/07/30 06:14:25;;;;;;;;;;;15.90;99.90;;;;;;5087089;28;19935;-78
2021/07/30 06:16:53;;;;;;;;;;;16.00;99.90;;;;;;5088657;28;20207;-77
2021/07/30 06:19:20;;;;;;;;;;;16.10;99.90;;;;;;5089384;28;19920;-78
2021/07/30 06:21:46;;;;;;;;;;;16.20;99.90;;;;;;5089538;28;20019;-78
2021/07/30 06:24:12;;;;;;;;;;;16.30;99.90;;;;;;5084057;28;19912;-79
2021/07/30 06:26:38;;;;;;;;;;;16.30;99.90;;;;;;5086335;28;20330;-77
2021/07/30 06:29:03;;;;;;;;;;;16.40;99.90;;;;;;5085299;28;19916;-76
2021/07/30 06:31:29;;;;;;;;;;;16.50;99.90;;;;;;5087076;28;20003;-77
2021/07/30 06:33:55;;;;;;;;;;;16.50;99.90;;;;;;5086050;28;20218;-79
2021/07/30 06:36:24;;;;;;;;;;;16.60;99.90;;;;;;5086128;28;19916;-77
2021/07/30 06:38:50;;;;;;;;;;;16.60;99.90;;;;;;5080323;28;19912;-76
2021/07/30 06:41:16;;;;;;;;;;;16.70;99.90;;;;;;5084671;28;20190;-78
2021/07/30 06:43:41;;;;;;;;;;;16.80;99.90;;;;;;5092105;28;19919;-78
2021/07/30 06:46:07;;;;;;;;;;;16.80;99.90;;;;;;5095650;28;19918;-77
2021/07/30 06:48:33;;;;;;;;;;;16.90;99.90;;;;;;5096958;28;19924;-78
2021/07/30 06:50:59;;;;;;;;;;;16.90;99.90;;;;;;5098723;28;19957;-77
2021/07/30 06:53:24;;;;;;;;;;;16.90;99.90;;;;;;5095105;28;19916;-77
2021/07/30 06:55:50;;;;;;;;;;;16.90;99.90;;;;;;5094624;28;19920;-78
2021/07/30 06:58:15;;;;;;;;;;;17.00;99.90;;;;;;5097507;28;19977;-78
2021/07/30 07:00:41;;;;;;;;;;;17.00;99.90;;;;;;5098435;28;19960;-78
2021/07/30 07:03:07;;;;;;;;;;;17.10;99.90;;;;;;5101557;28;19916;-78
2021/07/30 07:05:35;;;;;;;;;;;17.10;99.90;;;;;;5102386;28;20438;-77
2021/07/30 07:08:01;;;;;;;;;;;17.20;99.90;;;;;;5100023;28;19923;-78
2021/07/30 07:10:26;;;;;;;;;;;17.20;99.90;;;;;;5097511;28;19919;-78
2021/07/30 07:12:52;;;;;;;;;;;17.30;99.90;;;;;;5092174;28;19927;-78
2021/07/30 07:15:18;;;;;;;;;;;17.40;99.90;;;;;;5096468;28;20314;-78
2021/07/30 07:17:44;;;;;;;;;;;17.50;99.90;;;;;;5094818;28;19923;-78
2021/07/30 07:20:10;;;;;;;;;;;17.60;99.90;;;;;;5102563;28;20220;-78
2021/07/30 07:22:35;;;;;;;;;;;17.70;99.90;;;;;;5103578;28;19911;-78
2021/07/30 07:25:01;;;;;;;;;;;17.70;99.90;;;;;;5097641;27;19931;-78
2021/07/30 07:27:26;;;;;;;;;;;17.80;99.90;;;;;;5097089;28;19996;-77
2021/07/30 07:29:52;;;;;;;;;;;17.90;99.90;;;;;;5097947;28;20308;-80
2021/07/30 07:32:18;;;;;;;;;;;18.00;99.90;;;;;;5098507;28;20014;-80
2021/07/30 07:34:43;;;;;;;;;;;18.10;99.90;;;;;;5094609;28;20001;-78
2021/07/30 07:37:09;;;;;;;;;;;18.10;99.90;;;;;;5096904;28;19916;-78
2021/07/30 07:39:34;;;;;;;;;;;18.10;99.90;;;;;;5110667;28;20278;-78
2021/07/30 07:42:00;;;;;;;;;;;18.10;99.90;;;;;;5134835;27;20432;-77
2021/07/30 07:44:25;;;;;;;;;;;18.20;99.90;;;;;;5097758;28;20003;-79
2021/07/30 07:46:51;;;;;;;;;;;18.20;99.90;;;;;;5095657;28;20035;-78
2021/07/30 07:49:17;;;;;;;;;;;18.20;99.90;;;;;;5109720;28;19920;-77
2021/07/30 07:51:42;;;;;;;;;;;18.20;99.90;;;;;;5096019;28;19908;-78
2021/07/30 07:54:08;;;;;;;;;;;18.20;99.90;;;;;;5100804;28;19943;-78
2021/07/30 07:56:33;;;;;;;;;;;18.20;99.90;;;;;;5088899;28;19917;-78
2021/07/30 07:59:00;;;;;;;;;;;18.20;99.90;;;;;;5090089;28;19959;-77
2021/07/30 08:01:26;;;;;;;;;;;18.30;99.90;;;;;;5128330;27;19923;-78
2021/07/30 08:03:51;;;;;;;;;;;18.30;99.90;;;;;;5088758;28;19912;-78
2021/07/30 08:06:20;;;;;;;;;;;18.30;99.90;;;;;;5095085;28;19927;-77
2021/07/30 08:08:47;;;;;;;;;;;18.40;99.90;;;;;;5085900;28;19980;-77
2021/07/30 08:11:12;;;;;;;;;;;18.40;99.90;;;;;;5090053;28;19934;-79
2021/07/30 08:13:38;;;;;;;;;;;18.50;99.90;;;;;;5126848;27;20307;-80
2021/07/30 08:16:04;;;;;;;;;;;18.60;99.90;;;;;;5105827;28;19916;-79
2021/07/30 08:18:29;;;;;;;;;;;18.70;99.90;;;;;;5109132;28;19911;-78
2021/07/30 08:20:55;;;;;;;;;;;18.80;99.90;;;;;;5113809;28;19908;-78
2021/07/30 08:23:20;;;;;;;;;;;18.90;99.90;;;;;;5105879;28;19916;-78
2021/07/30 08:25:46;;;;;;;;;;;19.00;99.90;;;;;;5107819;28;19916;-77
2021/07/30 08:28:13;;;;;;;;;;;19.10;99.90;;;;;;5104547;28;19920;-77
2021/07/30 08:30:42;;;;;;;;;;;19.20;99.90;;;;;;5102814;28;20382;-78
2021/07/30 08:33:08;;;;;;;;;;;19.20;99.90;;;;;;5109699;28;19912;-77
2021/07/30 08:35:34;;;;;;;;;;;19.40;99.90;;;;;;5104409;28;19916;-76
2021/07/30 08:38:00;;;;;;;;;;;19.40;99.90;;;;;;5099523;28;19915;-78
2021/07/30 08:40:29;;;;;;;;;;;19.60;99.90;;;;;;5096421;28;19962;-78
2021/07/30 08:42:55;;;;;;;;;;;19.70;99.90;;;;;;5091721;28;20218;-80
2021/07/30 08:45:20;;;;;;;;;;;19.90;99.90;;;;;;5091573;28;19916;-78
2021/07/30 08:47:46;;;;;;;;;;;20.10;99.90;;;;;;5085721;28;19916;-78
2021/07/30 08:50:12;;;;;;;;;;;20.20;99.90;;;;;;5096724;28;20010;-78
2021/07/30 08:52:40;;;;;;;;;;;20.30;99.90;;;;;;5093520;28;19916;-80
2021/07/30 08:55:06;;;;;;;;;;;20.40;99.90;;;;;;5092181;28;20212;-78
2021/07/30 08:57:32;;;;;;;;;;;20.40;99.90;;;;;;5095222;28;19958;-80
2021/07/30 09:00:08;;;;;;;;;;;20.40;99.90;;;;;;5095811;28;19912;-79
2021/07/30 09:02:34;;;;;;;;;;;20.40;99.90;;;;;;5096117;28;19915;-78
2021/07/30 09:05:19;;;;;;;;;;;20.30;99.90;;;;;;5101697;28;19922;-79
2021/07/30 09:07:45;;;;;;;;;;;20.30;99.90;;;;;;5099545;28;19918;-79
2021/07/30 09:10:10;;;;;;;;;;;20.40;99.90;;;;;;5105702;28;19916;-78
2021/07/30 09:12:36;;;;;;;;;;;20.40;99.90;;;;;;5141533;27;19985;-80
2021/07/30 09:15:19;;;;;;;;;;;20.40;99.90;;;;;;5092565;28;19931;-84
2021/07/30 09:17:45;;;;;;;;;;;20.40;99.90;;;;;;5100432;28;19916;-83
2021/07/30 09:20:10;;;;;;;;;;;20.40;99.90;;;;;;5094553;28;19969;-80
2021/07/30 09:22:49;;;;;;;;;;;20.40;99.90;;;;;;5096733;28;19915;-80
2021/07/30 09:25:30;;;;;;;;;;;20.40;99.90;;;;;;5098680;28;19919;-79
2021/07/30 09:28:01;;;;;;;;;;;20.40;99.90;;;;;;5099817;28;19967;-80
2021/07/30 09:30:26;;;;;;;;;;;20.40;99.90;;;;;;5096411;28;19962;-79
2021/07/30 09:32:52;;;;;;;;;;;20.40;99.90;;;;;;5091144;28;20317;-81
2021/07/30 09:35:18;;;;;;;;;;;20.50;99.90;;;;;;5086579;28;19993;-81
2021/07/30 09:37:43;;;;;;;;;;;20.50;99.90;;;;;;5091438;28;19912;-82
2021/07/30 09:40:18;;;;;;;;;;;20.60;99.90;;;;;;5096219;28;20011;-81
2021/07/30 09:42:44;;;;;;;;;;;20.60;99.90;;;;;;5095561;28;20070;-81
2021/07/30 09:45:13;;;;;;;;;;;20.60;99.90;;;;;;5091481;28;20618;-82
2021/07/30 09:47:49;;;;;;;;;;;20.70;99.90;;;;;;5094976;28;20298;-79
2021/07/30 09:50:14;;;;;;;;;;;20.70;99.90;;;;;;5093048;28;19987;-81
2021/07/30 09:52:41;;;;;;;;;;;20.70;99.90;;;;;;5086816;28;20005;-78
2021/07/30 09:55:11;;;;;;;;;;;20.70;99.90;;;;;;5086368;28;19920;-80
2021/07/30 09:57:37;;;;;;;;;;;20.70;99.90;;;;;;5084334;28;20296;-80
2021/07/30 10:00:07;;;;;;;;;;;20.80;99.90;;;;;;5087015;28;19924;-82
2021/07/30 10:02:34;;;;;;;;;;;20.70;99.90;;;;;;5095775;28;20006;-81
2021/07/30 10:05:00;;;;;;;;;;;20.80;99.90;;;;;;5087824;28;19912;-80
2021/07/30 10:07:27;;;;;;;;;;;20.80;99.90;;;;;;5093061;28;19998;-79
2021/07/30 10:10:03;;;;;;;;;;;20.90;99.90;;;;;;5087071;28;19916;-80
2021/07/30 10:12:30;;;;;;;;;;;21.00;99.90;;;;;;5085805;28;20234;-80
2021/07/30 10:14:55;;;;;;;;;;;21.00;99.90;;;;;;5094473;28;19912;-81
2021/07/30 10:17:26;;;;;;;;;;;21.00;99.90;;;;;;5100482;28;19912;-79
2021/07/30 10:19:51;;;;;;;;;;;21.00;99.90;;;;;;5095279;28;19912;-78
2021/07/30 10:22:17;;;;;;;;;;;21.00;99.90;;;;;;5096880;28;19923;-79
2021/07/30 10:24:45;;;;;;;;;;;21.00;99.90;;;;;;5093961;28;19995;-79
2021/07/30 10:27:11;;;;;;;;;;;21.00;99.90;;;;;;5089235;28;19919;-81
2021/07/30 10:32:03;;;;;;;;;;;21.00;99.90;;;;;;5092786;28;19963;-78
2021/07/30 10:34:48;;;;;;;;;;;21.10;99.90;;;;;;5088383;28;19977;-79
2021/07/30 10:37:43;;;;;;;;;;;21.10;99.90;;;;;;5094805;28;20562;-80
2021/07/30 10:40:13;;;;;;;;;;;21.10;99.90;;;;;;5079256;28;19923;-81
2021/07/30 10:42:57;;;;;;;;;;;21.20;99.90;;;;;;5099560;28;19912;-79
2021/07/30 10:45:23;;;;;;;;;;;21.20;99.90;;;;;;5083116;28;20370;-79
2021/07/30 10:48:08;;;;;;;;;;;21.30;99.90;;;;;;5106066;28;19920;-79
2021/07/30 10:50:41;;;;;;;;;;;21.40;99.90;;;;;;5099460;28;19919;-81
2021/07/30 10:53:25;;;;;;;;;;;21.50;99.90;;;;;;5093752;28;20346;-81
2021/07/30 10:55:51;;;;;;;;;;;21.60;99.90;;;;;;5096501;28;20002;-80
2021/07/30 10:58:16;;;;;;;;;;;21.60;99.90;;;;;;5130844;27;19920;-80
2021/07/30 11:00:54;;;;;;;;;;;21.80;99.90;;;;;;5098896;28;19914;-81
2021/07/30 11:03:20;;;;;;;;;;;22.00;99.90;;;;;;5093588;28;20266;-82
2021/07/30 11:06:14;;;;;;;;;;;22.10;99.90;;;;;;5104079;28;19951;-78
2021/07/30 11:08:58;;;;;;;;;;;22.20;99.90;;;;;;5112272;27;19916;-80
2021/07/30 11:11:41;;;;;;;;;;;22.20;99.90;;;;;;5086906;28;19986;-81
2021/07/30 11:14:07;;;;;;;;;;;22.00;99.90;;;;;;5101458;28;19919;-79
2021/07/30 11:16:35;;;;;;;;;;;21.90;99.90;;;;;;5104778;28;19966;-78
2021/07/30 11:19:01;;;;;;;;;;;21.80;99.90;;;;;;5140239;27;19908;-81
2021/07/30 11:21:29;;;;;;;;;;;21.70;99.90;;;;;;5107349;28;20214;-80
2021/07/30 11:23:55;;;;;;;;;;;21.60;99.90;;;;;;5102261;28;19918;-82
2021/07/30 11:26:20;;;;;;;;;;;21.60;99.90;;;;;;5110632;28;19947;-79
2021/07/30 11:28:54;;;;;;;;;;;21.60;99.90;;;;;;5110979;28;19951;-83
2021/07/30 11:31:20;;;;;;;;;;;21.70;99.90;;;;;;5102608;28;19916;-79
2021/07/30 11:33:46;;;;;;;;;;;21.90;99.90;;;;;;5090879;28;19923;-80
2021/07/30 11:36:12;;;;;;;;;;;22.10;99.90;;;;;;5089261;28;19916;-78
2021/07/30 11:38:47;;;;;;;;;;;22.30;99.90;;;;;;5087982;28;19919;-79
2021/07/30 11:41:14;;;;;;;;;;;22.40;99.90;;;;;;5089026;28;19927;-79
2021/07/30 11:43:59;;;;;;;;;;;22.50;99.90;;;;;;5087785;28;19916;-80
2021/07/30 11:46:25;;;;;;;;;;;22.50;99.90;;;;;;5087670;28;19923;-82
2021/07/30 11:48:51;;;;;;;;;;;22.40;99.90;;;;;;5092484;28;19927;-80
2021/07/30 11:51:18;;;;;;;;;;;22.30;99.90;;;;;;5088945;28;19916;-81
2021/07/30 11:53:44;;;;;;;;;;;22.20;99.90;;;;;;5095357;28;19935;-80
2021/07/30 11:56:09;;;;;;;;;;;22.00;99.90;;;;;;5094121;28;20400;-79
2021/07/30 11:58:35;;;;;;;;;;;21.90;99.90;;;;;;5085057;28;20313;-81
2021/07/30 12:01:10;;;;;;;;;;;21.80;99.90;;;;;;5095979;28;19965;-79
2021/07/30 12:03:36;;;;;;;;;;;21.80;99.90;;;;;;5108651;27;19927;-81
2021/07/30 12:06:02;;;;;;;;;;;21.60;99.90;;;;;;5089938;28;19912;-80
2021/07/30 12:08:34;;;;;;;;;;;21.50;99.90;;;;;;5090355;28;19943;-81
2021/07/30 12:11:01;;;;;;;;;;;21.40;99.90;;;;;;5089339;28;19916;-80
2021/07/30 12:13:29;;;;;;;;;;;21.30;99.90;;;;;;5101595;28;19924;-80
2021/07/30 12:15:55;;;;;;;;;;;21.20;99.90;;;;;;5101451;28;19920;-79
2021/07/30 12:18:20;;;;;;;;;;;21.20;99.90;;;;;;5097064;28;19965;-80
2021/07/30 12:20:47;;;;;;;;;;;21.10;99.90;;;;;;5102465;28;20321;-78
2021/07/30 12:23:17;;;;;;;;;;;21.10;99.90;;;;;;5088619;28;19916;-80
2021/07/30 12:25:48;;;;;;;;;;;21.10;99.90;;;;;;5091078;28;19916;-79
2021/07/30 12:28:16;;;;;;;;;;;21.00;99.90;;;;;;5097914;28;19912;-80
2021/07/30 12:30:41;;;;;;;;;;;21.00;99.90;;;;;;5094173;28;19916;-80
2021/07/30 12:33:23;;;;;;;;;;;21.00;99.90;;;;;;5095774;28;19924;-78
2021/07/30 12:35:48;;;;;;;;;;;21.00;99.90;;;;;;5092967;28;20011;-79
2021/07/30 12:38:16;;;;;;;;;;;21.00;99.90;;;;;;5102624;28;20050;-79
2021/07/30 12:40:41;;;;;;;;;;;21.00;99.90;;;;;;5112962;28;19915;-80
2021/07/30 12:43:11;;;;;;;;;;;21.10;99.90;;;;;;5110418;28;19914;-79
2021/07/30 12:45:38;;;;;;;;;;;21.10;99.90;;;;;;5129763;27;20023;-80
2021/07/30 12:48:04;;;;;;;;;;;21.10;99.90;;;;;;5105491;28;19919;-80
2021/07/30 12:50:37;;;;;;;;;;;21.10;99.90;;;;;;5109361;28;20389;-80
2021/07/30 12:53:17;;;;;;;;;;;21.10;99.90;;;;;;5102235;28;19941;-79
2021/07/30 12:55:55;;;;;;;;;;;21.10;99.90;;;;;;5091803;28;19908;-80
2021/07/30 12:58:21;;;;;;;;;;;21.20;99.90;;;;;;5101028;28;19916;-80
2021/07/30 13:00:50;;;;;;;;;;;21.30;99.90;;;;;;5094766;28;19920;-80
2021/07/30 13:03:15;;;;;;;;;;;21.30;99.90;;;;;;5082400;28;20299;-79
2021/07/30 13:05:43;;;;;;;;;;;21.30;99.90;;;;;;5116747;27;19965;-78
2021/07/30 13:08:09;;;;;;;;;;;21.30;99.90;;;;;;5091895;28;19992;-80
2021/07/30 13:10:34;;;;;;;;;;;21.30;99.90;;;;;;5089625;28;20333;-79
2021/07/30 13:13:00;;;;;;;;;;;21.20;99.90;;;;;;5095101;28;19915;-81
2021/07/30 13:15:25;;;;;;;;;;;21.20;99.90;;;;;;5094585;28;20310;-80
2021/07/30 13:17:53;;;;;;;;;;;21.20;99.90;;;;;;5095900;28;19916;-79
2021/07/30 13:20:19;;;;;;;;;;;21.20;99.90;;;;;;5094790;28;19919;-78
2021/07/30 13:22:45;;;;;;;;;;;21.10;99.90;;;;;;5094626;28;19912;-79
2021/07/30 13:25:10;;;;;;;;;;;21.00;99.90;;;;;;5094751;28;20000;-78
2021/07/30 13:27:36;;;;;;;;;;;20.90;99.90;;;;;;5089866;28;19916;-78
2021/07/30 13:30:02;;;;;;;;;;;20.80;99.90;;;;;;5095441;28;19932;-78
2021/07/30 13:32:27;;;;;;;;;;;20.60;99.90;;;;;;5094988;28;20609;-76
2021/07/30 13:34:53;;;;;;;;;;;20.50;99.90;;;;;;5093868;28;19922;-77
2021/07/30 13:37:19;;;;;;;;;;;20.30;99.90;;;;;;5095656;28;19927;-78
2021/07/30 13:39:44;;;;;;;;;;;20.10;99.90;;;;;;5094528;28;19919;-82
2021/07/30 13:42:10;;;;;;;;;;;20.00;99.90;;;;;;5093122;28;19912;-79
2021/07/30 13:44:35;;;;;;;;;;;19.80;99.90;;;;;;5091466;28;19999;-76
2021/07/30 13:47:01;;;;;;;;;;;19.70;99.90;;;;;;5088386;28;19912;-76
2021/07/30 13:49:27;;;;;;;;;;;19.60;99.90;;;;;;5092306;28;20003;-79
2021/07/30 13:51:52;;;;;;;;;;;19.50;99.90;;;;;;5094961;28;19928;-75
2021/07/30 13:54:18;;;;;;;;;;;19.30;99.90;;;;;;5095449;28;19930;-76
2021/07/30 13:56:43;;;;;;;;;;;19.20;99.90;;;;;;5096256;28;20066;-77
2021/07/30 13:59:09;;;;;;;;;;;19.10;99.90;;;;;;5091650;28;19942;-77
2021/07/30 14:01:34;;;;;;;;;;;19.00;99.90;;;;;;5086101;28;19919;-78
2021/07/30 14:04:00;;;;;;;;;;;18.90;99.90;;;;;;5088455;28;19912;-77
2021/07/30 14:06:26;;;;;;;;;;;18.90;99.90;;;;;;5091769;28;19955;-77
2021/07/30 14:08:51;;;;;;;;;;;18.80;99.90;;;;;;5097307;28;19927;-77
2021/07/30 14:11:17;;;;;;;;;;;18.80;99.90;;;;;;5091163;28;19991;-78
2021/07/30 14:13:42;;;;;;;;;;;18.80;99.90;;;;;;5091980;28;19925;-78
2021/07/30 14:16:08;;;;;;;;;;;18.80;99.90;;;;;;5089676;28;20057;-77
2021/07/30 14:18:34;;;;;;;;;;;18.90;99.90;;;;;;5093239;28;19920;-79
2021/07/30 14:21:00;;;;;;;;;;;18.90;99.90;;;;;;5094168;28;19916;-81